New Carlisle, IN

3:52 AM EST on November 27, 2014 (GMT -0500)
Bendix Woods County Park | Change Station
CLOSE
Current Station
Personal Weather Station
Location: New Carlisle, IN
Elevation: 835 ft
Nearby Weather Stations
Active Advisory: Special Statement

Elev 835 ft 41.66 °N, 86.51 °W | Updated 3 seconds ago

Snow
Snow
26.9 °F
Feels Like 27 °F
N
0.0
Wind Variable Wind from North
Gusts 0.0 mph

Today
High -- | Low -- °F
--% Chance of Precip.
Yesterday
High -- | Low -- °F
Precip. -- in
7:49 AM 5:17 PM
Waxing Crescent, 27% visible
Pressure 30.20 in
Visibility 9.0 miles
Clouds Overcast 3500 ft
Windchill 27 °F
Dew Point 22 °F
Humidity 82%
Rainfall 0.00 in
Snow Depth Not available.
UV 0 out of 12
Pollen .10 out of 12
Air Quality Not available.
Flu Activity Not available.
METAR KSBN 270754Z 30004KT 9SM -SN OVC035 M02/M06 A3017 RMK AO2 SNB31 SLP226 P0000 T10221056

More Conditions Fewer Conditions

Pressure 30.20 in
Visibility 9.0 miles
Clouds Overcast 3500 ft
Windchill 27 °F
Dew Point 22 °F
Humidity 82%
Rainfall 0.00 in
Snow Depth Not available.
UV 0 out of 12
Pollen .10 out of 12
Air Quality Not available.
Flu Activity Not available.
METAR KSBN 270754Z 30004KT 9SM -SN OVC035 M02/M06 A3017 RMK AO2 SNB31 SLP226 P0000 T10221056

More Conditions Fewer Conditions

10-Day Weather Forecast

Almanac

Astronomy

Nov. 27, 2014 Rise Set
Actual Time
Civil Twilight
Nautical Twilight
Astronomical Twilight
Moon
Length of Visible Light
Length of Day
Tomorrow will be .
, % of the Moon is Illuminated

Today's Extremes

State Highs State Lows

Community

WunderPhotos

Upload Photos

1,773,965 photos uploaded!

WunderBlogs® & News

Nearby

Air Quality

  Air Quality AQ Index Pollutant
Not available.

Snow Depth

Station Depth Elevation

Earthquake Activity

City Distance Mag. Time & Date
Minimum magnitude displayed is 2.5.

Coastal Water Temperatures

Place Temperature

Nearby Weather Stations